EDAK weather

Public forecast

Using degrees Celsius for public forecast. Weather courtesy of forecast.io.

Closest aviation weather report (METAR) to Flugplatz Großenhain

Closest report is Dresden Airport, 13.2 nm (24.4 km) SE. Retrieved 2020/08/10 15:20 UTC (0 seconds ago):

EDDC 101520Z 18005KT 150V210 9999 -RA NSC 22/19 Q1018 NOSIG

Closest aviation forecast (TAF) to Flugplatz Großenhain

Closest forecast is Dresden Airport, 13.2 nm (24.4 km) SE. Retrieved 2020/08/10 12:27 UTC (3 hours ago):

TAF EDDC 101100Z 1012/1112 05005KT 9999 BKN060CB TEMPO 1012/1021 08015G25KT TSRA PROB30 TEMPO 1014/1018 TSRAGR BECMG 1021/1023 NSC TEMPO 1103/1108 1400 BCFG